Bishopthorpe, United Kingdom
Current Conditions -  °F | °C
As of 11:50 PM on Wednesday 28 Jan 2015 (Local Time) from EGXU Reporting Station
Few Clouds Few Clouds  
Wind Chill: 25°   Ceiling: Unl
Heat Index: 36°   Visibility: 6mi
Dew Point: 28°   Wind: 21mph
Humidity: 75%   Direction: 260°W
Pressure: 29.18"   Gusts: NA
Location:  53.92°N, 1.1°W
Report Text: EGXU 282350Z AUTO 26018KT 9999 // FEW160/// 02/M02 Q0988
Loading
Personal Weather Stations






























Interactive Weather Map New forecast layout! Learn more

10-Day Weather Forecast

Advertisements
Track Severe Weather on mobile